sensor_id;sensor_type;location;lat;lon;timestamp;P1;durP1;ratioP1;P2;durP2;ratioP2
61017;SDS011;48171;51.550;5.434;2022-12-15T00:02:21;60.35;;;24.05;;
61017;SDS011;48171;51.550;5.434;2022-12-15T00:05:05;58.28;;;24.08;;
61017;SDS011;48171;51.550;5.434;2022-12-15T00:07:48;65.00;;;23.92;;
61017;SDS011;48171;51.550;5.434;2022-12-15T00:10:33;70.15;;;24.92;;
61017;SDS011;48171;51.550;5.434;2022-12-15T00:13:17;79.25;;;28.35;;
61017;SDS011;48171;51.550;5.434;2022-12-15T00:16:01;79.45;;;28.08;;
61017;SDS011;48171;51.550;5.434;2022-12-15T00:18:45;76.55;;;25.23;;
61017;SDS011;48171;51.550;5.434;2022-12-15T00:21:29;73.20;;;25.83;;
61017;SDS011;48171;51.550;5.434;2022-12-15T00:24:13;80.47;;;26.45;;
61017;SDS011;48171;51.550;5.434;2022-12-15T00:26:57;72.07;;;25.20;;
61017;SDS011;48171;51.550;5.434;2022-12-15T00:29:41;73.50;;;25.27;;
61017;SDS011;48171;51.550;5.434;2022-12-15T00:32:25;62.20;;;25.50;;
61017;SDS011;48171;51.550;5.434;2022-12-15T00:35:09;67.97;;;23.85;;
61017;SDS011;48171;51.550;5.434;2022-12-15T00:37:53;63.88;;;23.92;;
61017;SDS011;48171;51.550;5.434;2022-12-15T00:40:37;60.55;;;23.08;;
61017;SDS011;48171;51.550;5.434;2022-12-15T00:43:02;76.65;;;25.88;;
61017;SDS011;48171;51.550;5.434;2022-12-15T00:45:28;68.05;;;24.30;;
61017;SDS011;48171;51.550;5.434;2022-12-15T00:48:12;67.10;;;25.20;;
61017;SDS011;48171;51.550;5.434;2022-12-15T00:50:37;64.68;;;25.70;;
61017;SDS011;48171;51.550;5.434;2022-12-15T00:56:05;69.50;;;23.45;;
61017;SDS011;48171;51.550;5.434;2022-12-15T00:58:50;70.47;;;23.40;;
61017;SDS011;48171;51.550;5.434;2022-12-15T01:01:34;56.13;;;22.40;;
61017;SDS011;48171;51.550;5.434;2022-12-15T01:04:18;72.43;;;24.05;;
61017;SDS011;48171;51.550;5.434;2022-12-15T01:07:02;60.80;;;23.17;;
61017;SDS011;48171;51.550;5.434;2022-12-15T01:09:46;63.80;;;23.02;;
61017;SDS011;48171;51.550;5.434;2022-12-15T01:12:30;69.28;;;23.08;;
61017;SDS011;48171;51.550;5.434;2022-12-15T01:15:14;60.97;;;23.65;;
61017;SDS011;48171;51.550;5.434;2022-12-15T01:17:58;63.72;;;24.55;;
61017;SDS011;48171;51.550;5.434;2022-12-15T01:20:42;73.00;;;25.38;;
61017;SDS011;48171;51.550;5.434;2022-12-15T01:23:08;72.43;;;26.10;;
61017;SDS011;48171;51.550;5.434;2022-12-15T01:25:33;66.07;;;25.15;;
61017;SDS011;48171;51.550;5.434;2022-12-15T01:28:03;74.45;;;26.08;;
61017;SDS011;48171;51.550;5.434;2022-12-15T01:30:28;63.25;;;25.20;;
61017;SDS011;48171;51.550;5.434;2022-12-15T01:32:54;64.25;;;25.45;;
61017;SDS011;48171;51.550;5.434;2022-12-15T01:35:19;73.78;;;25.63;;
61017;SDS011;48171;51.550;5.434;2022-12-15T01:37:45;65.53;;;25.05;;
61017;SDS011;48171;51.550;5.434;2022-12-15T01:40:12;74.55;;;25.63;;
61017;SDS011;48171;51.550;5.434;2022-12-15T01:42:58;71.50;;;24.85;;
61017;SDS011;48171;51.550;5.434;2022-12-15T01:47:52;67.97;;;25.95;;
61017;SDS011;48171;51.550;5.434;2022-12-15T01:50:18;61.15;;;24.23;;
61017;SDS011;48171;51.550;5.434;2022-12-15T01:52:44;64.10;;;24.90;;
61017;SDS011;48171;51.550;5.434;2022-12-15T01:55:11;67.10;;;25.25;;
61017;SDS011;48171;51.550;5.434;2022-12-15T01:57:37;59.03;;;24.52;;
61017;SDS011;48171;51.550;5.434;2022-12-15T02:00:04;73.85;;;25.25;;
61017;SDS011;48171;51.550;5.434;2022-12-15T02:02:32;61.60;;;23.77;;
61017;SDS011;48171;51.550;5.434;2022-12-15T02:05:00;69.78;;;25.80;;
61017;SDS011;48171;51.550;5.434;2022-12-15T02:07:27;73.00;;;26.25;;
61017;SDS011;48171;51.550;5.434;2022-12-15T02:09:53;64.85;;;24.75;;
61017;SDS011;48171;51.550;5.434;2022-12-15T02:21:09;68.57;;;22.67;;
61017;SDS011;48171;51.550;5.434;2022-12-15T02:23:55;64.88;;;24.75;;
61017;SDS011;48171;51.550;5.434;2022-12-15T02:29:32;68.95;;;27.20;;
61017;SDS011;48171;51.550;5.434;2022-12-15T02:32:23;66.10;;;25.98;;
61017;SDS011;48171;51.550;5.434;2022-12-15T02:34:54;66.35;;;24.63;;
61017;SDS011;48171;51.550;5.434;2022-12-15T02:37:36;64.80;;;26.58;;
61017;SDS011;48171;51.550;5.434;2022-12-15T02:40:04;69.68;;;25.83;;
61017;SDS011;48171;51.550;5.434;2022-12-15T02:42:32;65.22;;;23.95;;
61017;SDS011;48171;51.550;5.434;2022-12-15T02:45:02;70.22;;;27.23;;
61017;SDS011;48171;51.550;5.434;2022-12-15T02:47:48;77.30;;;27.17;;
61017;SDS011;48171;51.550;5.434;2022-12-15T02:53:47;61.92;;;24.75;;
61017;SDS011;48171;51.550;5.434;2022-12-15T02:56:25;72.95;;;26.05;;
61017;SDS011;48171;51.550;5.434;2022-12-15T02:59:02;71.82;;;27.33;;
61017;SDS011;48171;51.550;5.434;2022-12-15T03:01:52;66.28;;;24.33;;
61017;SDS011;48171;51.550;5.434;2022-12-15T03:04:19;74.55;;;26.85;;
61017;SDS011;48171;51.550;5.434;2022-12-15T03:06:44;68.85;;;26.48;;
61017;SDS011;48171;51.550;5.434;2022-12-15T03:09:10;75.95;;;26.75;;
61017;SDS011;48171;51.550;5.434;2022-12-15T03:11:36;73.47;;;26.55;;
61017;SDS011;48171;51.550;5.434;2022-12-15T03:14:02;69.97;;;27.85;;
61017;SDS011;48171;51.550;5.434;2022-12-15T03:16:27;65.75;;;25.42;;
61017;SDS011;48171;51.550;5.434;2022-12-15T03:18:52;58.33;;;25.30;;
61017;SDS011;48171;51.550;5.434;2022-12-15T03:21:18;77.43;;;26.42;;
61017;SDS011;48171;51.550;5.434;2022-12-15T03:23:43;68.57;;;25.35;;
61017;SDS011;48171;51.550;5.434;2022-12-15T03:26:09;70.45;;;26.08;;
61017;SDS011;48171;51.550;5.434;2022-12-15T03:28:34;66.07;;;24.27;;
61017;SDS011;48171;51.550;5.434;2022-12-15T03:30:59;66.82;;;25.65;;
61017;SDS011;48171;51.550;5.434;2022-12-15T03:33:25;68.18;;;26.23;;
61017;SDS011;48171;51.550;5.434;2022-12-15T03:35:50;68.95;;;26.45;;
61017;SDS011;48171;51.550;5.434;2022-12-15T03:38:16;65.13;;;25.23;;
61017;SDS011;48171;51.550;5.434;2022-12-15T03:40:41;73.45;;;26.70;;
61017;SDS011;48171;51.550;5.434;2022-12-15T03:43:07;73.15;;;26.02;;
61017;SDS011;48171;51.550;5.434;2022-12-15T03:45:32;66.85;;;25.30;;
61017;SDS011;48171;51.550;5.434;2022-12-15T03:47:57;73.40;;;26.85;;
61017;SDS011;48171;51.550;5.434;2022-12-15T03:50:23;63.88;;;24.75;;
61017;SDS011;48171;51.550;5.434;2022-12-15T03:52:51;72.18;;;26.67;;
61017;SDS011;48171;51.550;5.434;2022-12-15T03:55:18;71.30;;;26.83;;
61017;SDS011;48171;51.550;5.434;2022-12-15T03:57:44;60.72;;;25.50;;
61017;SDS011;48171;51.550;5.434;2022-12-15T04:00:10;69.35;;;25.35;;
61017;SDS011;48171;51.550;5.434;2022-12-15T04:02:39;67.03;;;27.27;;
61017;SDS011;48171;51.550;5.434;2022-12-15T04:05:08;71.75;;;27.08;;
61017;SDS011;48171;51.550;5.434;2022-12-15T04:07:38;72.30;;;25.05;;
61017;SDS011;48171;51.550;5.434;2022-12-15T04:10:04;66.28;;;25.80;;
61017;SDS011;48171;51.550;5.434;2022-12-15T04:12:29;70.32;;;26.92;;
61017;SDS011;48171;51.550;5.434;2022-12-15T04:14:54;63.75;;;25.92;;
61017;SDS011;48171;51.550;5.434;2022-12-15T04:17:20;66.72;;;25.83;;
61017;SDS011;48171;51.550;5.434;2022-12-15T04:19:45;58.33;;;23.85;;
61017;SDS011;48171;51.550;5.434;2022-12-15T04:22:29;65.53;;;25.80;;
61017;SDS011;48171;51.550;5.434;2022-12-15T04:24:54;69.85;;;26.20;;
61017;SDS011;48171;51.550;5.434;2022-12-15T04:27:38;63.97;;;24.98;;
61017;SDS011;48171;51.550;5.434;2022-12-15T04:30:22;80.20;;;26.65;;
61017;SDS011;48171;51.550;5.434;2022-12-15T04:33:06;64.20;;;26.35;;
61017;SDS011;48171;51.550;5.434;2022-12-15T04:35:50;67.18;;;27.13;;
61017;SDS011;48171;51.550;5.434;2022-12-15T04:38:35;68.65;;;25.60;;
61017;SDS011;48171;51.550;5.434;2022-12-15T04:41:19;64.88;;;26.02;;
61017;SDS011;48171;51.550;5.434;2022-12-15T04:44:05;70.70;;;25.48;;
61017;SDS011;48171;51.550;5.434;2022-12-15T04:46:50;62.28;;;24.65;;
61017;SDS011;48171;51.550;5.434;2022-12-15T04:49:34;65.10;;;24.50;;
61017;SDS011;48171;51.550;5.434;2022-12-15T04:52:18;74.45;;;27.73;;
61017;SDS011;48171;51.550;5.434;2022-12-15T04:55:02;71.97;;;25.35;;
61017;SDS011;48171;51.550;5.434;2022-12-15T04:57:46;72.72;;;26.20;;
61017;SDS011;48171;51.550;5.434;2022-12-15T05:00:30;67.82;;;25.02;;
61017;SDS011;48171;51.550;5.434;2022-12-15T05:03:14;68.80;;;26.88;;
61017;SDS011;48171;51.550;5.434;2022-12-15T05:05:58;73.25;;;25.30;;
61017;SDS011;48171;51.550;5.434;2022-12-15T05:08:43;66.38;;;24.95;;
61017;SDS011;48171;51.550;5.434;2022-12-15T05:11:27;71.63;;;27.00;;
61017;SDS011;48171;51.550;5.434;2022-12-15T05:14:11;73.38;;;28.15;;
61017;SDS011;48171;51.550;5.434;2022-12-15T05:16:55;65.38;;;26.30;;
61017;SDS011;48171;51.550;5.434;2022-12-15T05:19:39;80.60;;;28.02;;
61017;SDS011;48171;51.550;5.434;2022-12-15T05:22:23;70.88;;;27.25;;
61017;SDS011;48171;51.550;5.434;2022-12-15T05:25:07;70.13;;;25.50;;
61017;SDS011;48171;51.550;5.434;2022-12-15T05:27:52;78.40;;;27.58;;
61017;SDS011;48171;51.550;5.434;2022-12-15T05:30:36;78.07;;;27.58;;
61017;SDS011;48171;51.550;5.434;2022-12-15T05:33:20;71.60;;;26.02;;
61017;SDS011;48171;51.550;5.434;2022-12-15T05:35:45;67.22;;;26.23;;
61017;SDS011;48171;51.550;5.434;2022-12-15T05:38:10;75.65;;;28.15;;
61017;SDS011;48171;51.550;5.434;2022-12-15T05:40:36;74.55;;;29.10;;
61017;SDS011;48171;51.550;5.434;2022-12-15T05:43:01;69.47;;;25.85;;
61017;SDS011;48171;51.550;5.434;2022-12-15T05:45:27;83.13;;;28.98;;
61017;SDS011;48171;51.550;5.434;2022-12-15T05:47:53;78.20;;;27.42;;
61017;SDS011;48171;51.550;5.434;2022-12-15T05:50:18;70.22;;;28.17;;
61017;SDS011;48171;51.550;5.434;2022-12-15T05:52:45;68.10;;;28.23;;
61017;SDS011;48171;51.550;5.434;2022-12-15T05:55:10;74.30;;;29.50;;
61017;SDS011;48171;51.550;5.434;2022-12-15T05:57:36;72.10;;;29.08;;
61017;SDS011;48171;51.550;5.434;2022-12-15T06:00:02;76.22;;;29.58;;
61017;SDS011;48171;51.550;5.434;2022-12-15T06:02:28;76.10;;;28.55;;
61017;SDS011;48171;51.550;5.434;2022-12-15T06:04:54;71.25;;;28.25;;
61017;SDS011;48171;51.550;5.434;2022-12-15T06:07:19;75.07;;;27.45;;
61017;SDS011;48171;51.550;5.434;2022-12-15T06:09:44;79.90;;;27.98;;
61017;SDS011;48171;51.550;5.434;2022-12-15T06:12:10;73.13;;;27.65;;
61017;SDS011;48171;51.550;5.434;2022-12-15T06:14:35;68.80;;;28.27;;
61017;SDS011;48171;51.550;5.434;2022-12-15T06:17:00;77.18;;;27.88;;
61017;SDS011;48171;51.550;5.434;2022-12-15T06:19:26;74.53;;;29.25;;
61017;SDS011;48171;51.550;5.434;2022-12-15T06:21:51;79.63;;;28.77;;
61017;SDS011;48171;51.550;5.434;2022-12-15T06:24:16;69.13;;;27.85;;
61017;SDS011;48171;51.550;5.434;2022-12-15T06:26:42;75.43;;;28.60;;
61017;SDS011;48171;51.550;5.434;2022-12-15T06:29:08;76.95;;;28.55;;
61017;SDS011;48171;51.550;5.434;2022-12-15T06:31:35;71.78;;;27.38;;
61017;SDS011;48171;51.550;5.434;2022-12-15T06:34:02;72.07;;;28.17;;
61017;SDS011;48171;51.550;5.434;2022-12-15T06:36:29;72.95;;;28.25;;
61017;SDS011;48171;51.550;5.434;2022-12-15T06:38:56;82.28;;;29.80;;
61017;SDS011;48171;51.550;5.434;2022-12-15T06:41:23;72.32;;;27.95;;
61017;SDS011;48171;51.550;5.434;2022-12-15T06:43:49;72.07;;;27.63;;
61017;SDS011;48171;51.550;5.434;2022-12-15T06:46:15;68.32;;;27.98;;
61017;SDS011;48171;51.550;5.434;2022-12-15T06:48:40;79.38;;;27.70;;
61017;SDS011;48171;51.550;5.434;2022-12-15T06:51:09;79.43;;;30.13;;
61017;SDS011;48171;51.550;5.434;2022-12-15T06:53:35;92.22;;;31.38;;
61017;SDS011;48171;51.550;5.434;2022-12-15T06:56:03;103.13;;;36.28;;
61017;SDS011;48171;51.550;5.434;2022-12-15T06:58:31;144.93;;;42.88;;
61017;SDS011;48171;51.550;5.434;2022-12-15T07:00:56;140.40;;;42.42;;
61017;SDS011;48171;51.550;5.434;2022-12-15T07:03:21;125.85;;;39.05;;
61017;SDS011;48171;51.550;5.434;2022-12-15T07:05:47;97.47;;;33.50;;
61017;SDS011;48171;51.550;5.434;2022-12-15T07:08:13;89.93;;;31.73;;
61017;SDS011;48171;51.550;5.434;2022-12-15T07:10:40;82.97;;;29.80;;
61017;SDS011;48171;51.550;5.434;2022-12-15T07:13:08;80.88;;;29.73;;
61017;SDS011;48171;51.550;5.434;2022-12-15T07:15:34;79.38;;;29.25;;
61017;SDS011;48171;51.550;5.434;2022-12-15T07:18:00;77.38;;;28.58;;
61017;SDS011;48171;51.550;5.434;2022-12-15T07:20:26;68.78;;;26.42;;
61017;SDS011;48171;51.550;5.434;2022-12-15T07:22:51;69.93;;;28.83;;
61017;SDS011;48171;51.550;5.434;2022-12-15T07:25:16;73.03;;;28.10;;
61017;SDS011;48171;51.550;5.434;2022-12-15T07:27:42;72.57;;;27.58;;
61017;SDS011;48171;51.550;5.434;2022-12-15T07:30:08;72.03;;;26.85;;
61017;SDS011;48171;51.550;5.434;2022-12-15T07:32:34;76.68;;;27.90;;
61017;SDS011;48171;51.550;5.434;2022-12-15T07:34:59;80.78;;;29.23;;
61017;SDS011;48171;51.550;5.434;2022-12-15T07:37:25;73.38;;;28.20;;
61017;SDS011;48171;51.550;5.434;2022-12-15T07:39:53;76.15;;;28.10;;
61017;SDS011;48171;51.550;5.434;2022-12-15T07:42:18;63.42;;;26.33;;
61017;SDS011;48171;51.550;5.434;2022-12-15T07:44:44;72.13;;;26.00;;
61017;SDS011;48171;51.550;5.434;2022-12-15T07:47:09;85.68;;;29.20;;
61017;SDS011;48171;51.550;5.434;2022-12-15T07:49:34;71.80;;;28.30;;
61017;SDS011;48171;51.550;5.434;2022-12-15T07:52:00;83.00;;;30.63;;
61017;SDS011;48171;51.550;5.434;2022-12-15T07:54:25;79.28;;;26.88;;
61017;SDS011;48171;51.550;5.434;2022-12-15T07:56:50;69.68;;;27.00;;
61017;SDS011;48171;51.550;5.434;2022-12-15T07:59:16;73.68;;;26.77;;
61017;SDS011;48171;51.550;5.434;2022-12-15T08:01:41;64.13;;;25.42;;
61017;SDS011;48171;51.550;5.434;2022-12-15T08:04:07;75.22;;;28.05;;
61017;SDS011;48171;51.550;5.434;2022-12-15T08:06:32;71.22;;;25.48;;
61017;SDS011;48171;51.550;5.434;2022-12-15T08:08:57;67.03;;;26.50;;
61017;SDS011;48171;51.550;5.434;2022-12-15T08:11:23;72.03;;;28.08;;
61017;SDS011;48171;51.550;5.434;2022-12-15T08:13:49;78.10;;;26.42;;
61017;SDS011;48171;51.550;5.434;2022-12-15T08:16:15;70.72;;;25.80;;
61017;SDS011;48171;51.550;5.434;2022-12-15T08:18:40;73.03;;;27.30;;
61017;SDS011;48171;51.550;5.434;2022-12-15T08:21:06;72.63;;;26.35;;
61017;SDS011;48171;51.550;5.434;2022-12-15T08:23:34;67.22;;;26.85;;
61017;SDS011;48171;51.550;5.434;2022-12-15T08:26:03;87.75;;;29.25;;
61017;SDS011;48171;51.550;5.434;2022-12-15T08:28:32;70.95;;;28.13;;
61017;SDS011;48171;51.550;5.434;2022-12-15T08:31:02;64.50;;;26.05;;
61017;SDS011;48171;51.550;5.434;2022-12-15T08:33:32;72.53;;;28.00;;
61017;SDS011;48171;51.550;5.434;2022-12-15T08:36:02;72.93;;;27.05;;
61017;SDS011;48171;51.550;5.434;2022-12-15T08:38:30;68.40;;;27.17;;
61017;SDS011;48171;51.550;5.434;2022-12-15T08:40:56;67.43;;;26.05;;
61017;SDS011;48171;51.550;5.434;2022-12-15T08:43:22;71.25;;;26.75;;
61017;SDS011;48171;51.550;5.434;2022-12-15T08:45:47;70.07;;;27.10;;
61017;SDS011;48171;51.550;5.434;2022-12-15T08:48:13;75.57;;;27.35;;
61017;SDS011;48171;51.550;5.434;2022-12-15T08:50:45;69.68;;;29.02;;
61017;SDS011;48171;51.550;5.434;2022-12-15T08:53:11;78.68;;;28.42;;
61017;SDS011;48171;51.550;5.434;2022-12-15T08:55:36;79.90;;;30.50;;
61017;SDS011;48171;51.550;5.434;2022-12-15T08:58:02;79.93;;;30.10;;
61017;SDS011;48171;51.550;5.434;2022-12-15T09:00:27;85.28;;;30.85;;
61017;SDS011;48171;51.550;5.434;2022-12-15T09:02:53;80.40;;;31.52;;
61017;SDS011;48171;51.550;5.434;2022-12-15T09:05:18;79.22;;;31.20;;
61017;SDS011;48171;51.550;5.434;2022-12-15T09:07:44;96.55;;;37.55;;
61017;SDS011;48171;51.550;5.434;2022-12-15T09:10:09;98.65;;;35.45;;
61017;SDS011;48171;51.550;5.434;2022-12-15T09:12:34;88.30;;;32.85;;
61017;SDS011;48171;51.550;5.434;2022-12-15T09:14:59;92.75;;;33.42;;
61017;SDS011;48171;51.550;5.434;2022-12-15T09:17:25;82.32;;;31.58;;
61017;SDS011;48171;51.550;5.434;2022-12-15T09:19:50;79.57;;;32.88;;
61017;SDS011;48171;51.550;5.434;2022-12-15T09:22:16;85.25;;;33.75;;
61017;SDS011;48171;51.550;5.434;2022-12-15T09:24:42;86.15;;;33.88;;
61017;SDS011;48171;51.550;5.434;2022-12-15T09:27:07;86.47;;;33.05;;
61017;SDS011;48171;51.550;5.434;2022-12-15T09:29:32;85.65;;;33.70;;
61017;SDS011;48171;51.550;5.434;2022-12-15T09:31:58;91.10;;;34.38;;
61017;SDS011;48171;51.550;5.434;2022-12-15T09:34:23;87.28;;;35.38;;
61017;SDS011;48171;51.550;5.434;2022-12-15T09:36:49;94.70;;;36.80;;
61017;SDS011;48171;51.550;5.434;2022-12-15T09:39:14;95.22;;;34.75;;
61017;SDS011;48171;51.550;5.434;2022-12-15T09:41:40;95.47;;;36.92;;
61017;SDS011;48171;51.550;5.434;2022-12-15T09:44:15;97.10;;;37.72;;
61017;SDS011;48171;51.550;5.434;2022-12-15T09:46:50;89.65;;;36.13;;
61017;SDS011;48171;51.550;5.434;2022-12-15T09:52:21;95.97;;;36.92;;
61017;SDS011;48171;51.550;5.434;2022-12-15T09:54:49;99.65;;;37.78;;
61017;SDS011;48171;51.550;5.434;2022-12-15T10:08:03;105.03;;;39.22;;
61017;SDS011;48171;51.550;5.434;2022-12-15T10:10:31;95.25;;;38.97;;
61017;SDS011;48171;51.550;5.434;2022-12-15T10:13:07;103.13;;;39.63;;
61017;SDS011;48171;51.550;5.434;2022-12-15T10:15:48;101.03;;;39.40;;
61017;SDS011;48171;51.550;5.434;2022-12-15T10:18:22;107.68;;;39.28;;
61017;SDS011;48171;51.550;5.434;2022-12-15T10:20:51;111.80;;;39.60;;
61017;SDS011;48171;51.550;5.434;2022-12-15T10:23:18;106.82;;;40.38;;
61017;SDS011;48171;51.550;5.434;2022-12-15T10:25:55;108.32;;;43.08;;
61017;SDS011;48171;51.550;5.434;2022-12-15T10:28:46;101.22;;;39.58;;
61017;SDS011;48171;51.550;5.434;2022-12-15T10:31:35;96.82;;;38.88;;
61017;SDS011;48171;51.550;5.434;2022-12-15T10:34:24;109.18;;;40.17;;
61017;SDS011;48171;51.550;5.434;2022-12-15T10:36:54;103.85;;;40.10;;
61017;SDS011;48171;51.550;5.434;2022-12-15T10:39:21;94.93;;;39.45;;
61017;SDS011;48171;51.550;5.434;2022-12-15T10:44:37;109.63;;;41.67;;
61017;SDS011;48171;51.550;5.434;2022-12-15T10:47:13;98.90;;;39.58;;
61017;SDS011;48171;51.550;5.434;2022-12-15T10:49:43;103.80;;;39.42;;
61017;SDS011;48171;51.550;5.434;2022-12-15T10:52:15;110.80;;;41.42;;
61017;SDS011;48171;51.550;5.434;2022-12-15T10:54:46;95.63;;;39.15;;
61017;SDS011;48171;51.550;5.434;2022-12-15T10:57:15;101.00;;;38.33;;
61017;SDS011;48171;51.550;5.434;2022-12-15T10:59:45;106.10;;;40.95;;
61017;SDS011;48171;51.550;5.434;2022-12-15T11:02:32;101.22;;;39.17;;
61017;SDS011;48171;51.550;5.434;2022-12-15T11:04:58;97.55;;;37.53;;
61017;SDS011;48171;51.550;5.434;2022-12-15T11:07:34;89.88;;;37.22;;
61017;SDS011;48171;51.550;5.434;2022-12-15T11:10:07;91.47;;;38.53;;
61017;SDS011;48171;51.550;5.434;2022-12-15T11:12:41;107.53;;;40.88;;
61017;SDS011;48171;51.550;5.434;2022-12-15T11:17:47;103.20;;;39.92;;
61017;SDS011;48171;51.550;5.434;2022-12-15T11:20:19;103.63;;;40.25;;
61017;SDS011;48171;51.550;5.434;2022-12-15T11:22:56;100.00;;;39.08;;
61017;SDS011;48171;51.550;5.434;2022-12-15T11:28:01;110.45;;;42.88;;
61017;SDS011;48171;51.550;5.434;2022-12-15T11:30:37;97.47;;;40.42;;
61017;SDS011;48171;51.550;5.434;2022-12-15T11:33:09;100.40;;;40.47;;
61017;SDS011;48171;51.550;5.434;2022-12-15T11:40:52;111.82;;;43.67;;
61017;SDS011;48171;51.550;5.434;2022-12-15T11:51:41;98.43;;;39.70;;
61017;SDS011;48171;51.550;5.434;2022-12-15T11:56:41;94.85;;;37.92;;
61017;SDS011;48171;51.550;5.434;2022-12-15T12:02:13;104.20;;;39.20;;
61017;SDS011;48171;51.550;5.434;2022-12-15T12:08:00;94.78;;;38.58;;
61017;SDS011;48171;51.550;5.434;2022-12-15T12:19:36;95.70;;;37.42;;
61017;SDS011;48171;51.550;5.434;2022-12-15T12:22:19;86.55;;;37.00;;
61017;SDS011;48171;51.550;5.434;2022-12-15T12:25:32;85.85;;;36.10;;
61017;SDS011;48171;51.550;5.434;2022-12-15T12:30:18;93.40;;;37.47;;
61017;SDS011;48171;51.550;5.434;2022-12-15T12:35:22;83.68;;;35.67;;
61017;SDS011;48171;51.550;5.434;2022-12-15T12:38:03;88.88;;;37.42;;
61017;SDS011;48171;51.550;5.434;2022-12-15T12:43:04;92.40;;;36.40;;
61017;SDS011;48171;51.550;5.434;2022-12-15T12:45:32;91.38;;;37.78;;
61017;SDS011;48171;51.550;5.434;2022-12-15T12:48:06;92.35;;;37.55;;
61017;SDS011;48171;51.550;5.434;2022-12-15T12:50:38;85.78;;;37.40;;
61017;SDS011;48171;51.550;5.434;2022-12-15T12:53:03;99.97;;;38.92;;
61017;SDS011;48171;51.550;5.434;2022-12-15T12:55:38;86.40;;;38.38;;
61017;SDS011;48171;51.550;5.434;2022-12-15T13:01:11;99.35;;;38.85;;
61017;SDS011;48171;51.550;5.434;2022-12-15T13:03:42;92.63;;;38.10;;
61017;SDS011;48171;51.550;5.434;2022-12-15T13:14:18;94.32;;;38.22;;
61017;SDS011;48171;51.550;5.434;2022-12-15T13:16:48;92.15;;;39.10;;
61017;SDS011;48171;51.550;5.434;2022-12-15T13:22:24;86.22;;;38.00;;
61017;SDS011;48171;51.550;5.434;2022-12-15T13:24:55;95.70;;;39.38;;
61017;SDS011;48171;51.550;5.434;2022-12-15T13:27:21;100.28;;;39.70;;
61017;SDS011;48171;51.550;5.434;2022-12-15T13:32:41;100.38;;;39.95;;
61017;SDS011;48171;51.550;5.434;2022-12-15T13:37:44;92.07;;;37.92;;
61017;SDS011;48171;51.550;5.434;2022-12-15T13:40:30;93.32;;;39.13;;
61017;SDS011;48171;51.550;5.434;2022-12-15T13:43:06;99.95;;;40.70;;
61017;SDS011;48171;51.550;5.434;2022-12-15T13:45:50;89.47;;;37.78;;
61017;SDS011;48171;51.550;5.434;2022-12-15T13:48:39;92.80;;;38.42;;
61017;SDS011;48171;51.550;5.434;2022-12-15T13:53:46;94.25;;;39.35;;
61017;SDS011;48171;51.550;5.434;2022-12-15T13:56:24;87.50;;;39.60;;
61017;SDS011;48171;51.550;5.434;2022-12-15T13:58:53;90.35;;;38.88;;
61017;SDS011;48171;51.550;5.434;2022-12-15T14:01:26;97.30;;;42.03;;
61017;SDS011;48171;51.550;5.434;2022-12-15T14:03:56;98.10;;;41.25;;
61017;SDS011;48171;51.550;5.434;2022-12-15T14:06:33;91.38;;;42.50;;
61017;SDS011;48171;51.550;5.434;2022-12-15T14:09:01;92.35;;;41.88;;
61017;SDS011;48171;51.550;5.434;2022-12-15T14:11:28;100.80;;;43.88;;
61017;SDS011;48171;51.550;5.434;2022-12-15T14:14:00;92.85;;;42.60;;
61017;SDS011;48171;51.550;5.434;2022-12-15T14:16:26;94.05;;;41.25;;
61017;SDS011;48171;51.550;5.434;2022-12-15T14:19:13;98.68;;;42.72;;
61017;SDS011;48171;51.550;5.434;2022-12-15T14:21:47;91.20;;;41.17;;
61017;SDS011;48171;51.550;5.434;2022-12-15T14:24:21;90.35;;;41.33;;
61017;SDS011;48171;51.550;5.434;2022-12-15T14:26:49;92.78;;;40.03;;
61017;SDS011;48171;51.550;5.434;2022-12-15T14:29:15;88.93;;;40.42;;
61017;SDS011;48171;51.550;5.434;2022-12-15T14:31:41;92.93;;;40.55;;
61017;SDS011;48171;51.550;5.434;2022-12-15T14:34:13;92.85;;;41.03;;
61017;SDS011;48171;51.550;5.434;2022-12-15T14:36:43;84.65;;;39.15;;
61017;SDS011;48171;51.550;5.434;2022-12-15T14:39:16;85.43;;;38.47;;
61017;SDS011;48171;51.550;5.434;2022-12-15T14:41:47;91.53;;;39.50;;
61017;SDS011;48171;51.550;5.434;2022-12-15T14:44:29;90.13;;;38.70;;
61017;SDS011;48171;51.550;5.434;2022-12-15T14:46:55;88.30;;;40.72;;
61017;SDS011;48171;51.550;5.434;2022-12-15T14:49:23;81.38;;;39.65;;
61017;SDS011;48171;51.550;5.434;2022-12-15T14:51:52;90.30;;;39.22;;
61017;SDS011;48171;51.550;5.434;2022-12-15T14:54:34;89.38;;;38.67;;
61017;SDS011;48171;51.550;5.434;2022-12-15T14:57:02;87.13;;;36.92;;
61017;SDS011;48171;51.550;5.434;2022-12-15T14:59:33;90.00;;;38.30;;
61017;SDS011;48171;51.550;5.434;2022-12-15T15:05:24;89.20;;;37.65;;
61017;SDS011;48171;51.550;5.434;2022-12-15T15:07:54;83.88;;;37.00;;
61017;SDS011;48171;51.550;5.434;2022-12-15T15:10:21;89.17;;;37.83;;
61017;SDS011;48171;51.550;5.434;2022-12-15T15:12:51;77.35;;;36.20;;
61017;SDS011;48171;51.550;5.434;2022-12-15T15:15:18;86.55;;;37.83;;
61017;SDS011;48171;51.550;5.434;2022-12-15T15:17:52;89.15;;;37.22;;
61017;SDS011;48171;51.550;5.434;2022-12-15T15:20:21;81.03;;;37.28;;
61017;SDS011;48171;51.550;5.434;2022-12-15T15:25:41;77.93;;;34.80;;
61017;SDS011;48171;51.550;5.434;2022-12-15T15:28:19;89.70;;;36.45;;
61017;SDS011;48171;51.550;5.434;2022-12-15T15:33:17;81.72;;;35.80;;
61017;SDS011;48171;51.550;5.434;2022-12-15T15:35:43;86.05;;;36.80;;
61017;SDS011;48171;51.550;5.434;2022-12-15T15:40:35;87.30;;;37.30;;
61017;SDS011;48171;51.550;5.434;2022-12-15T15:43:01;79.07;;;35.70;;
61017;SDS011;48171;51.550;5.434;2022-12-15T15:45:26;88.32;;;37.53;;
61017;SDS011;48171;51.550;5.434;2022-12-15T15:47:51;82.95;;;35.47;;
61017;SDS011;48171;51.550;5.434;2022-12-15T15:50:19;82.70;;;36.55;;
61017;SDS011;48171;51.550;5.434;2022-12-15T15:52:49;80.57;;;36.20;;
61017;SDS011;48171;51.550;5.434;2022-12-15T15:55:15;91.80;;;38.72;;
61017;SDS011;48171;51.550;5.434;2022-12-15T15:57:48;83.05;;;35.85;;
61017;SDS011;48171;51.550;5.434;2022-12-15T16:00:17;85.65;;;36.80;;
61017;SDS011;48171;51.550;5.434;2022-12-15T16:02:45;87.18;;;35.78;;
61017;SDS011;48171;51.550;5.434;2022-12-15T16:05:11;86.22;;;37.30;;
61017;SDS011;48171;51.550;5.434;2022-12-15T16:07:37;84.88;;;36.17;;
61017;SDS011;48171;51.550;5.434;2022-12-15T16:10:02;83.35;;;36.60;;
61017;SDS011;48171;51.550;5.434;2022-12-15T16:12:32;83.20;;;37.45;;
61017;SDS011;48171;51.550;5.434;2022-12-15T16:15:11;78.72;;;35.47;;
61017;SDS011;48171;51.550;5.434;2022-12-15T16:17:41;84.65;;;36.33;;
61017;SDS011;48171;51.550;5.434;2022-12-15T16:20:07;92.78;;;38.00;;
61017;SDS011;48171;51.550;5.434;2022-12-15T16:22:33;91.13;;;37.92;;
61017;SDS011;48171;51.550;5.434;2022-12-15T16:24:59;92.00;;;37.50;;
61017;SDS011;48171;51.550;5.434;2022-12-15T16:27:24;84.57;;;36.38;;
61017;SDS011;48171;51.550;5.434;2022-12-15T16:29:49;85.15;;;38.30;;
61017;SDS011;48171;51.550;5.434;2022-12-15T16:32:15;92.90;;;40.08;;
61017;SDS011;48171;51.550;5.434;2022-12-15T16:34:40;85.93;;;37.35;;
61017;SDS011;48171;51.550;5.434;2022-12-15T16:37:07;84.63;;;37.47;;
61017;SDS011;48171;51.550;5.434;2022-12-15T16:39:47;85.10;;;35.10;;